Aeroporto :
LOGIN :

Iscrizione | Disclaimer

   EN    FR    IT 

 










Sommario :    VFR   VFR Marginale   IFR   IFR Intensivo   IFR Molto Intensivo
Visibilità : 
Base nubi : 
>= 8 km
>= 3000ft
5 / 8 km
1000 / 3000 ft
1500m / 5 km
500 / 1000 ft
800 / 1500m
200 / 500 ft
< 800m
< 200 ft
Simboli :   Temporali  Nebbia  Neve Forte  Precipitazioni Forti  Vento > 20 kt
SIGMETs :   Varie  Temporali  Ghiacco  Turbolenza  Onda orograficha  Ceneri Vulcaniche






- Altitudine del aeroporto : 646 ft
- Codice IATA : VNO


EYVI - Vilnius int.

ULTIMO METAR :
  • 251050Z 14009KT 1600 R19/1300VP2000U SNRA OVC005 00/M00 Q0997 R19/2///95 TEMPO 1500 SNRA OVC002

METARs OBSOLETI :
  • 251020Z 16010KT 2700 SNRA BR OVC006 00/M00 Q0998 R19/2///95 TEMPO 1500 SNRA OVC005
  • 250950Z 16009KT 4300 -SNRA BR OVC007 01/M00 Q0999 R19/1///95 TEMPO 1500 SNRA OVC005
  • 250920Z 16009KT 9999 -SNRA OVC006 01/M01 Q0999 R19/1///95 TEMPO 1500 SNRA OVC005
  • 250850Z 17010KT 9999 BKN006 01/M00 Q0999 R19/1///95 TEMPO 3000 RASN BR OVC005

TAF TAF EYVI
Valido dal 25 a 06 ore il 26 a 06 ore UTC


250500Z 2506/2606 16010KT 6000 SCT005 BKN015
PROB40
TEMPO 2506/2509 0800 FZFG VV002
TEMPO 2509/2515 1500 SNRA BR OVC005
BECMG 2515/2516 3000 BR OVC005
TEMPO 2516/2524 0500 DZ FG OVC002



MetMap, La meteo Aeronautica in un colpo d'occhio ! - Copyright ORBIFLY Dicembre 2007 - Disclaimer

ORBIFLY MET'MAP TEAM :

Programmazione e sviluppo : Alexandra Zaïnal
Concezione : Baudouin d'Aumeries
Aiuto per la programmazione : Marc-Olivier Méhu
Supporto tecnico e logistico : Manuel Goepfert
Aiuto per la traduzione : Arnaldo La Scala

Contatto : metmap@orbifly.com




FONTI E CREDITI :

   NOAA